Time;durP1;ratioP1;P1;durP2;ratioP2;P2;SDS_P1;SDS_P2;PMS_P1;PMS_P2;Temp;Humidity;BMP_temperature;BMP_pressure;BME280_temperature;BME280_humidity;BME280_pressure;Samples;Min_cycle;Max_cycle;Signal;HPM_P1;HPM_P2
2022/01/25 00:27:36;;;;;;;28.98;16.30;;;;;;;1.21;94.34;100999.75;4980211;28;20824;-60
2022/01/25 00:30:21;;;;;;;26.13;15.27;;;;;;;1.11;94.08;101001.53;4991792;28;20036;-60
2022/01/25 00:32:44;;;;;;;31.67;16.50;;;;;;;1.26;94.30;101005.44;4984769;28;20043;-61
2022/01/25 00:35:09;;;;;;;33.17;17.30;;;;;;;1.30;93.96;101006.84;4991807;28;20026;-60
2022/01/25 00:37:35;;;;;;;30.45;15.73;;;;;;;1.42;94.05;101011.03;4990820;28;20460;-60
2022/01/25 00:40:00;;;;;;;37.25;17.33;;;;;;;1.34;93.58;101012.66;4985503;28;20369;-61
2022/01/25 00:42:25;;;;;;;30.63;16.38;;;;;;;1.34;93.30;101010.03;4992024;28;20563;-60
2022/01/25 00:44:51;;;;;;;34.10;18.23;;;;;;;1.33;94.41;101016.31;4994013;28;20034;-60
2022/01/25 00:47:16;;;;;;;38.83;18.95;;;;;;;1.23;94.43;101016.28;4989187;28;20038;-60
2022/01/25 00:49:43;;;;;;;34.88;18.13;;;;;;;1.15;94.43;101009.06;4995006;28;20069;-60
2022/01/25 00:52:25;;;;;;;37.67;18.63;;;;;;;1.21;94.97;100999.75;4985886;28;20130;-60
2022/01/25 00:54:52;;;;;;;28.23;16.27;;;;;;;1.17;94.62;101000.97;4984634;28;20491;-61
2022/01/25 00:57:18;;;;;;;29.95;16.65;;;;;;;1.18;94.48;101000.03;4988728;28;20039;-62
2022/01/25 00:59:43;;;;;;;30.63;18.45;;;;;;;1.15;94.27;100987.94;4987273;28;20069;-61
2022/01/25 01:02:11;;;;;;;32.85;16.75;;;;;;;1.19;94.02;100999.03;4988360;28;20428;-61
2022/01/25 01:04:36;;;;;;;31.52;17.23;;;;;;;1.13;94.62;100999.59;4986646;28;20085;-61
2022/01/25 01:07:05;;;;;;;35.15;16.85;;;;;;;1.00;95.61;101000.69;4982420;28;20444;-60
2022/01/25 01:09:33;;;;;;;28.63;17.42;;;;;;;1.00;95.52;100999.84;4988701;28;20203;-60
2022/01/25 01:12:04;;;;;;;33.53;17.20;;;;;;;0.94;96.01;100998.59;4989478;28;20061;-60
2022/01/25 01:34:03;;;;;;;32.60;17.38;;;;;;;0.96;95.36;100994.00;4986306;28;20116;-59
2022/01/25 01:45:23;;;;;;;35.38;18.25;;;;;;;1.02;95.29;101004.03;4953409;28;20039;-59
2022/01/25 01:47:47;;;;;;;32.85;16.92;;;;;;;1.00;95.73;100999.84;4985605;28;20500;-60
2022/01/25 01:50:16;;;;;;;32.10;16.48;;;;;;;0.95;95.18;100997.63;4992430;28;20034;-60
2022/01/25 01:52:41;;;;;;;37.63;18.42;;;;;;;0.97;95.35;100994.84;4970888;28;20061;-60
2022/01/25 01:55:07;;;;;;;42.35;18.23;;;;;;;0.91;95.54;100993.59;4969087;28;20039;-60
2022/01/25 01:57:33;;;;;;;34.13;17.98;;;;;;;0.97;95.84;101000.94;4969679;28;20062;-60
2022/01/25 01:59:58;;;;;;;35.30;16.63;;;;;;;0.81;95.95;100998.84;4974633;28;20082;-60
2022/01/25 02:02:23;;;;;;;33.70;17.75;;;;;;;1.00;95.93;100994.56;4966778;28;20043;-60
2022/01/25 02:04:49;;;;;;;35.63;19.02;;;;;;;0.97;95.87;101000.13;4970118;28;20031;-60
2022/01/25 02:07:14;;;;;;;35.50;16.67;;;;;;;0.90;95.29;101004.28;4977609;28;20093;-60
2022/01/25 02:09:40;;;;;;;35.58;16.48;;;;;;;0.92;95.51;100999.69;4964255;28;20027;-60
2022/01/25 02:12:06;;;;;;;40.47;20.20;;;;;;;0.96;95.83;100999.28;4972724;28;20513;-60
2022/01/25 02:14:35;;;;;;;40.28;18.00;;;;;;;0.97;95.64;101000.94;4975376;28;20030;-60
2022/01/25 02:17:10;;;;;;;35.20;17.67;;;;;;;0.80;96.20;100998.97;4974800;28;20145;-60
2022/01/25 02:22:34;;;;;;;32.63;17.10;;;;;;;0.87;95.82;100997.47;4969254;28;20097;-60
2022/01/25 02:24:59;;;;;;;37.72;18.67;;;;;;;0.92;95.86;100995.25;4966175;28;20482;-60
2022/01/25 02:27:25;;;;;;;29.55;14.30;;;;;;;0.83;95.91;100982.88;4966733;28;20089;-61
2022/01/25 02:29:50;;;;;;;33.75;16.40;;;;;;;0.74;96.46;100979.25;4968511;28;20034;-60
2022/01/25 02:32:16;;;;;;;30.88;16.60;;;;;;;0.81;96.38;100974.25;4984274;28;20399;-59
2022/01/25 02:34:41;;;;;;;37.65;19.23;;;;;;;0.82;96.20;100973.28;4988922;28;20026;-60
2022/01/25 02:37:09;;;;;;;26.42;14.77;;;;;;;0.72;96.38;100981.19;4989870;28;20675;-60
2022/01/25 02:39:34;;;;;;;33.38;18.75;;;;;;;0.82;96.59;100975.91;4991421;28;20034;-60
2022/01/25 02:42:00;;;;;;;33.05;17.33;;;;;;;0.84;96.84;100982.72;4992680;28;20152;-60
2022/01/25 02:44:27;;;;;;;33.92;18.15;;;;;;;0.69;96.71;100978.81;4997088;28;20038;-60
2022/01/25 02:49:28;;;;;;;33.22;17.45;;;;;;;0.72;96.62;100969.78;4976052;28;20378;-60
2022/01/25 02:51:53;;;;;;;31.35;16.55;;;;;;;0.72;97.18;100975.06;4981593;28;20047;-60
2022/01/25 02:54:19;;;;;;;32.42;15.68;;;;;;;0.58;96.95;100969.22;4984912;28;20030;-60
2022/01/25 02:56:44;;;;;;;35.88;17.27;;;;;;;0.51;97.06;100983.91;4991552;28;20491;-60
2022/01/25 02:59:10;;;;;;;27.50;16.00;;;;;;;0.52;97.42;100982.09;4983872;28;20092;-60
2022/01/25 03:01:36;;;;;;;39.17;18.45;;;;;;;0.54;97.69;100985.44;4990114;28;20050;-60
2022/01/25 03:04:03;;;;;;;31.55;17.88;;;;;;;0.63;98.07;100982.00;5004464;28;20034;-60
2022/01/25 03:06:28;;;;;;;36.35;18.10;;;;;;;0.68;98.27;100982.44;4985935;28;20051;-60
2022/01/25 03:08:54;;;;;;;36.75;17.42;;;;;;;0.62;97.75;100975.03;4987869;28;20046;-60
2022/01/25 03:11:20;;;;;;;29.65;14.93;;;;;;;0.55;97.75;100974.78;4983299;28;20038;-60
2022/01/25 03:13:54;;;;;;;34.15;16.90;;;;;;;0.52;97.69;100967.09;4988159;28;20172;-60
2022/01/25 03:16:34;;;;;;;37.08;17.25;;;;;;;0.56;97.99;100970.31;4987165;28;20493;-59
2022/01/25 03:19:03;;;;;;;35.53;19.33;;;;;;;0.54;98.03;100973.09;4983719;28;20057;-60
2022/01/25 03:23:54;;;;;;;37.75;17.13;;;;;;;0.43;98.06;100978.47;4988141;28;20029;-60
2022/01/25 03:26:20;;;;;;;40.70;18.92;;;;;;;0.46;98.66;100982.66;4987173;28;20503;-60
2022/01/25 03:28:45;;;;;;;34.90;17.63;;;;;;;0.46;98.99;100983.47;4978068;28;20038;-60
2022/01/25 03:31:11;;;;;;;33.75;17.80;;;;;;;0.38;98.63;100978.88;4992681;28;20042;-60
2022/01/25 03:33:36;;;;;;;37.97;18.23;;;;;;;0.47;98.69;100971.94;4991105;28;20049;-60
2022/01/25 03:36:02;;;;;;;38.42;17.95;;;;;;;0.47;98.32;100977.22;4991103;28;20367;-60
2022/01/25 03:38:28;;;;;;;37.00;17.98;;;;;;;0.59;99.68;100975.31;4981676;28;20022;-60
2022/01/25 03:40:53;;;;;;;42.53;20.63;;;;;;;0.44;98.92;100974.84;4985544;28;20464;-60
2022/01/25 03:43:19;;;;;;;44.72;20.58;;;;;;;0.15;100.00;100966.81;4980454;28;20034;-60
2022/01/25 03:45:57;;;;;;;45.60;19.85;;;;;;;0.26;99.86;100973.84;4982861;28;20081;-60
2022/01/25 03:50:48;;;;;;;45.97;20.77;;;;;;;0.40;100.00;100976.94;4984482;28;20047;-60
2022/01/25 03:53:14;;;;;;;38.40;19.90;;;;;;;0.43;99.76;100983.75;4994362;28;20053;-60
2022/01/25 03:55:40;;;;;;;47.92;21.70;;;;;;;0.42;99.20;100982.06;4983924;28;20045;-60
2022/01/25 03:58:06;;;;;;;42.67;19.85;;;;;;;0.33;99.10;100975.81;4978782;28;20549;-60
2022/01/25 04:00:33;;;;;;;35.65;17.73;;;;;;;0.16;99.53;100963.25;4990332;28;20068;-60
2022/01/25 04:05:47;;;;;;;43.42;19.60;;;;;;;0.21;100.00;100968.94;4987204;28;20537;-60
2022/01/25 04:08:13;;;;;;;39.72;20.23;;;;;;;0.14;100.00;100971.28;4988240;28;20076;-60
2022/01/25 04:10:39;;;;;;;42.67;19.85;;;;;;;0.20;100.00;100972.53;4990912;28;20050;-60
2022/01/25 04:13:05;;;;;;;36.85;18.30;;;;;;;0.19;100.00;100969.06;4990319;28;20376;-60
2022/01/25 04:15:30;;;;;;;45.00;20.13;;;;;;;-0.05;100.00;100966.75;4986536;28;20046;-60
2022/01/25 04:18:19;;;;;;;44.35;21.27;;;;;;;-0.03;100.00;100961.34;4996045;28;20034;-60
2022/01/25 04:20:56;;;;;;;49.17;20.10;;;;;;;-0.13;100.00;100968.38;4984713;28;20043;-60
2022/01/25 04:26:06;;;;;;;47.20;20.45;;;;;;;-0.12;100.00;100976.16;4976314;28;20112;-60
2022/01/25 04:28:32;;;;;;;44.10;19.83;;;;;;;-0.06;100.00;100965.06;4981463;28;20465;-60
2022/01/25 04:30:57;;;;;;;48.78;20.55;;;;;;;-0.01;100.00;100967.31;4988167;28;20034;-60
2022/01/25 04:33:27;;;;;;;46.25;20.05;;;;;;;-0.02;100.00;100955.94;4989887;28;20083;-60
2022/01/25 04:49:28;;;;;;;44.75;20.27;;;;;;;-0.24;100.00;100925.31;4992358;28;20045;-60
2022/01/25 04:52:02;;;;;;;43.22;20.00;;;;;;;-0.07;100.00;100923.03;4978004;28;20046;-59
2022/01/25 04:55:02;;;;;;;45.55;19.42;;;;;;;-0.05;100.00;100929.00;4991282;28;20029;-61
2022/01/25 04:57:30;;;;;;;50.53;21.70;;;;;;;0.04;100.00;100928.22;4989389;28;20137;-59
2022/01/25 05:00:06;;;;;;;42.72;19.08;;;;;;;-0.09;100.00;100927.63;4990476;28;20072;-59
2022/01/25 05:02:45;;;;;;;38.58;18.92;;;;;;;-0.17;100.00;100922.16;4986338;28;20137;-60
2022/01/25 05:05:17;;;;;;;45.25;19.98;;;;;;;-0.22;100.00;100931.28;4988834;28;20018;-60
2022/01/25 05:08:03;;;;;;;45.50;19.50;;;;;;;-0.11;100.00;100932.19;4992423;28;20022;-59
2022/01/25 05:10:31;;;;;;;53.30;21.83;;;;;;;-0.43;100.00;100933.09;4990378;28;20113;-61
2022/01/25 05:13:35;;;;;;;46.70;19.70;;;;;;;-0.30;100.00;100936.38;4990684;28;20065;-58
2022/01/25 05:16:05;;;;;;;40.30;17.80;;;;;;;-0.32;100.00;100942.75;4988800;28;20039;-58
2022/01/25 05:19:01;;;;;;;;;;;;;;;-0.37;100.00;100945.78;4998035;28;20387;-58
2022/01/25 05:24:00;;;;;;;37.45;16.05;;;;;;;-0.39;100.00;100952.13;4986705;28;20105;-59
2022/01/25 05:26:26;;;;;;;46.97;17.38;;;;;;;-0.28;100.00;100950.25;4989992;28;20492;-59
2022/01/25 05:28:51;;;;;;;41.83;18.63;;;;;;;-0.29;100.00;100950.41;4994506;28;20157;-60
2022/01/25 05:31:16;;;;;;;46.17;17.98;;;;;;;-0.33;100.00;100947.16;4990212;28;20046;-60
2022/01/25 05:33:42;;;;;;;49.67;18.63;;;;;;;-0.27;100.00;100953.75;4997530;28;20314;-60
2022/01/25 05:36:07;;;;;;;38.15;17.73;;;;;;;-0.35;100.00;100941.22;4987591;28;20042;-60
2022/01/25 05:38:33;;;;;;;41.63;16.80;;;;;;;-0.35;100.00;100954.38;4990965;28;20509;-59
2022/01/25 05:41:03;;;;;;;40.85;16.67;;;;;;;-0.48;100.00;100953.72;4986590;28;20708;-58
2022/01/25 05:46:19;;;;;;;46.10;14.93;;;;;;;-0.73;100.00;100953.13;4985675;28;20158;-58
2022/01/25 05:48:45;;;;;;;;;;;;;;;-0.74;100.00;100951.47;4985625;28;20464;-58
2022/01/25 05:51:11;;;;;;;55.53;15.98;;;;;;;-0.78;100.00;100962.38;4989878;28;19926;-60
2022/01/25 05:53:36;;;;;;;37.85;12.77;;;;;;;-0.86;100.00;100955.13;4990290;28;20038;-61
2022/01/25 05:56:02;;;;;;;47.97;17.15;;;;;;;-0.72;100.00;100954.00;4990432;28;20038;-60
2022/01/25 05:58:27;;;;;;;55.67;17.77;;;;;;;-0.83;100.00;100962.75;4988269;28;20046;-59
2022/01/25 06:00:53;;;;;;;86.40;14.90;;;;;;;-1.19;100.00;100954.28;4984004;28;20066;-59
2022/01/25 06:03:18;;;;;;;72.97;16.20;;;;;;;-1.14;100.00;100957.38;4991273;28;20030;-60
2022/01/25 06:05:44;;;;;;;58.78;16.83;;;;;;;-1.03;100.00;100953.88;4985971;28;20045;-61
2022/01/25 06:08:10;;;;;;;54.90;16.58;;;;;;;-1.07;100.00;100963.00;4977664;28;20092;-61
2022/01/25 06:10:35;;;;;;;59.88;16.90;;;;;;;-0.92;100.00;100950.38;4986572;28;20566;-59
2022/01/25 06:13:01;;;;;;;46.03;14.02;;;;;;;-1.08;100.00;100954.22;4993826;28;20512;-58
2022/01/25 06:15:26;;;;;;;52.90;13.95;;;;;;;-1.18;100.00;100950.69;4991644;28;20042;-60
2022/01/25 06:17:52;;;;;;;57.13;13.25;;;;;;;-0.80;100.00;100954.63;4990930;28;20087;-59
2022/01/25 06:20:17;;;;;;;62.75;15.57;;;;;;;-1.05;100.00;100949.69;5029403;28;20038;-59
2022/01/25 06:22:43;;;;;;;64.07;15.32;;;;;;;-0.98;100.00;100940.34;4994744;28;20688;-59
2022/01/25 06:25:10;;;;;;;52.47;16.42;;;;;;;-0.93;100.00;100943.41;4987167;28;20034;-59
2022/01/25 06:27:38;;;;;;;52.63;15.48;;;;;;;-0.91;100.00;100936.25;4988834;28;20034;-59
2022/01/25 06:30:06;;;;;;;51.08;15.55;;;;;;;-0.81;100.00;100934.50;4986346;28;20045;-59
2022/01/25 06:32:31;;;;;;;50.13;14.80;;;;;;;-0.84;100.00;100936.56;4993738;28;20058;-59
2022/01/25 06:34:57;;;;;;;59.65;15.80;;;;;;;-0.99;100.00;100933.41;4994813;28;20419;-59
2022/01/25 06:37:22;;;;;;;61.13;13.30;;;;;;;-1.24;100.00;100935.41;4985683;28;20297;-62
2022/01/25 06:39:49;;;;;;;62.00;14.45;;;;;;;-1.17;100.00;100941.84;4988470;28;20911;-60
2022/01/25 06:42:14;;;;;;;49.50;16.58;;;;;;;-1.11;100.00;100938.69;4980270;28;20619;-59
2022/01/25 06:44:40;;;;;;;41.05;14.27;;;;;;;-1.03;100.00;100943.34;4985240;28;20038;-59
2022/01/25 06:47:06;;;;;;;60.03;24.30;;;;;;;-0.98;100.00;100938.53;4986548;28;20050;-59
2022/01/25 06:49:31;;;;;;;52.10;16.10;;;;;;;-1.08;100.00;100938.44;4989819;28;20034;-61
2022/01/25 06:51:58;;;;;;;45.65;15.85;;;;;;;-1.08;100.00;100945.50;4982387;28;20549;-60
2022/01/25 06:54:23;;;;;;;62.08;16.92;;;;;;;-1.15;100.00;100945.19;4988555;28;20377;-60
2022/01/25 06:56:49;;;;;;;43.80;16.92;;;;;;;-1.06;100.00;100943.59;4983860;28;20038;-58
2022/01/25 06:59:15;;;;;;;39.13;14.35;;;;;;;-1.07;100.00;100947.19;4990243;28;20515;-60
2022/01/25 07:01:40;;;;;;;42.63;15.20;;;;;;;-1.03;100.00;100942.50;4992552;28;20073;-60
2022/01/25 07:04:06;;;;;;;50.65;18.35;;;;;;;-1.02;100.00;100945.03;4985608;28;20033;-58
2022/01/25 07:06:31;;;;;;;59.17;14.82;;;;;;;-1.06;100.00;100937.50;4990137;28;20049;-59
2022/01/25 07:08:58;;;;;;;48.17;14.95;;;;;;;-1.11;100.00;100949.22;4993032;28;20780;-61
2022/01/25 07:11:23;;;;;;;48.75;15.18;;;;;;;-1.11;100.00;100951.03;4982965;28;20133;-60
2022/01/25 07:13:49;;;;;;;42.85;12.88;;;;;;;-1.18;100.00;100955.13;4990159;28;20030;-59
2022/01/25 07:16:14;;;;;;;36.33;11.45;;;;;;;-1.19;100.00;100949.03;4986418;28;20048;-60
2022/01/25 07:18:40;;;;;;;41.13;12.82;;;;;;;-1.18;100.00;100945.41;4987196;28;20492;-59
2022/01/25 07:21:05;;;;;;;32.55;12.90;;;;;;;-1.14;100.00;100948.66;4986921;28;20068;-60
2022/01/25 07:23:31;;;;;;;43.63;11.50;;;;;;;-1.13;100.00;100942.41;4985072;28;20049;-59
2022/01/25 07:25:56;;;;;;;33.65;11.60;;;;;;;-1.20;100.00;100947.38;4977663;28;20057;-59
2022/01/25 07:28:22;;;;;;;40.22;12.18;;;;;;;-1.14;100.00;100951.28;4994684;28;20396;-59
2022/01/25 07:30:47;;;;;;;31.90;10.18;;;;;;;-1.21;100.00;100953.56;4985962;28;20742;-59
2022/01/25 07:33:13;;;;;;;36.13;10.75;;;;;;;-1.24;100.00;100951.19;4993546;28;20431;-59
2022/01/25 07:35:40;;;;;;;27.25;10.05;;;;;;;-1.30;100.00;100959.56;4990544;28;20049;-59
2022/01/25 07:38:05;;;;;;;23.85;10.15;;;;;;;-1.28;100.00;100954.19;4987423;28;20034;-59
2022/01/25 07:40:31;;;;;;;30.48;11.00;;;;;;;-1.36;100.00;100946.91;4977004;28;20112;-60
2022/01/25 07:42:57;;;;;;;26.15;8.57;;;;;;;-1.59;100.00;100943.50;4986572;28;20151;-59
2022/01/25 07:45:22;;;;;;;39.88;12.15;;;;;;;-1.33;100.00;100954.56;4985851;28;20052;-59
2022/01/25 07:47:48;;;;;;;21.73;9.23;;;;;;;-1.39;100.00;100952.44;4990593;28;20026;-59
2022/01/25 07:50:14;;;;;;;31.80;10.57;;;;;;;-1.49;100.00;100951.50;4993335;28;20033;-62
2022/01/25 07:52:40;;;;;;;31.33;11.35;;;;;;;-1.64;100.00;100961.44;4989993;28;20038;-59
2022/01/25 07:55:06;;;;;;;44.88;10.45;;;;;;;-1.60;100.00;100960.22;4982503;28;20089;-60
2022/01/25 07:57:31;;;;;;;38.40;11.77;;;;;;;-1.59;100.00;100957.47;4983412;28;20052;-59
2022/01/25 07:59:58;;;;;;;41.65;11.80;;;;;;;-1.29;100.00;100966.50;4988817;28;20559;-60
2022/01/25 08:02:23;;;;;;;34.10;11.20;;;;;;;-1.21;100.00;100971.97;4987297;28;20049;-59
2022/01/25 08:04:49;;;;;;;32.65;10.43;;;;;;;-1.10;100.00;100979.88;4986675;28;20076;-59
2022/01/25 08:07:17;;;;;;;33.25;12.35;;;;;;;-1.19;100.00;100970.06;4988165;28;20050;-59
2022/01/25 08:09:48;;;;;;;50.13;19.13;;;;;;;-1.09;100.00;100973.63;4981397;28;20022;-59
2022/01/25 08:12:14;;;;;;;36.70;15.07;;;;;;;-1.05;100.00;100976.00;4981209;28;20129;-59
2022/01/25 08:14:41;;;;;;;40.97;12.88;;;;;;;-1.00;100.00;100969.44;4986388;28;20951;-59
2022/01/25 08:17:07;;;;;;;34.55;12.23;;;;;;;-0.92;100.00;100976.69;4986740;28;20073;-61
2022/01/25 08:19:32;;;;;;;49.03;18.65;;;;;;;-0.99;100.00;100980.78;4989850;28;20400;-59
2022/01/25 08:21:58;;;;;;;47.55;18.63;;;;;;;-0.92;100.00;100972.25;4989891;28;20491;-61
2022/01/25 08:24:25;;;;;;;43.22;16.45;;;;;;;-0.88;100.00;100968.41;4988247;28;20547;-61
2022/01/25 08:26:50;;;;;;;43.97;11.90;;;;;;;-0.90;100.00;100977.38;4989992;28;20046;-59
2022/01/25 08:29:16;;;;;;;43.10;11.30;;;;;;;-0.98;100.00;100978.00;4968725;28;20511;-59
2022/01/25 08:31:42;;;;;;;43.80;15.13;;;;;;;-0.91;100.00;100978.34;4990365;28;20046;-59
2022/01/25 08:34:08;;;;;;;40.03;14.85;;;;;;;-0.77;100.00;100979.88;4998617;28;20396;-59
2022/01/25 08:36:34;;;;;;;36.67;12.77;;;;;;;-0.71;100.00;100988.09;4993405;28;20042;-59
2022/01/25 08:38:59;;;;;;;35.22;12.98;;;;;;;-0.72;100.00;100978.53;4992553;28;20022;-59
2022/01/25 08:41:25;;;;;;;34.63;11.63;;;;;;;-0.64;100.00;100972.63;4995282;28;20061;-60
2022/01/25 08:43:51;;;;;;;29.40;11.68;;;;;;;-0.68;100.00;100979.09;4984878;28;20026;-60
2022/01/25 08:46:16;;;;;;;50.85;12.95;;;;;;;-1.03;100.00;100979.34;4986761;28;20242;-60
2022/01/25 08:48:42;;;;;;;44.33;10.18;;;;;;;-1.05;100.00;100983.91;4989407;28;20437;-60
2022/01/25 08:51:07;;;;;;;49.42;11.23;;;;;;;-1.12;100.00;100994.09;4990773;28;20053;-60
2022/01/25 08:53:33;;;;;;;30.65;9.65;;;;;;;-1.41;100.00;100981.47;4991172;28;20030;-60
2022/01/25 08:55:58;;;;;;;37.47;11.27;;;;;;;-0.99;100.00;100992.16;4997725;28;21141;-60
2022/01/25 08:58:24;;;;;;;28.23;10.60;;;;;;;-1.11;100.00;100987.88;4996412;28;20049;-60
2022/01/25 09:00:49;;;;;;;38.85;11.38;;;;;;;-0.89;100.00;100994.88;4996553;28;20037;-60
2022/01/25 09:03:15;;;;;;;39.60;13.40;;;;;;;-0.77;100.00;100988.59;4996660;28;20523;-60
2022/01/25 09:05:40;;;;;;;50.22;12.15;;;;;;;-0.77;100.00;100985.97;4988475;28;20043;-60
2022/01/25 09:08:06;;;;;;;38.58;12.20;;;;;;;-0.92;100.00;100998.59;4990553;28;20030;-60
2022/01/25 09:10:32;;;;;;;43.90;14.18;;;;;;;-0.94;100.00;100994.41;4996147;28;20049;-60
2022/01/25 09:12:57;;;;;;;30.60;10.82;;;;;;;-1.02;100.00;100995.03;4991550;28;20157;-60
2022/01/25 09:15:23;;;;;;;45.15;10.90;;;;;;;-1.16;100.00;100990.03;4993922;28;20576;-59
2022/01/25 09:17:49;;;;;;;30.70;10.57;;;;;;;-0.89;100.00;100998.31;4992993;28;20042;-60
2022/01/25 09:20:14;;;;;;;45.60;13.10;;;;;;;-0.98;100.00;100998.25;4987693;28;20039;-60
2022/01/25 09:22:39;;;;;;;63.95;10.18;;;;;;;-0.99;100.00;101001.84;4990564;28;20045;-60
2022/01/25 09:25:05;;;;;;;34.47;11.98;;;;;;;-0.97;100.00;101002.56;4994410;28;20034;-59
2022/01/25 09:27:31;;;;;;;42.25;12.52;;;;;;;-1.19;100.00;101000.81;4993208;28;20520;-59
2022/01/25 09:29:56;;;;;;;55.90;16.05;;;;;;;-0.81;100.00;100988.97;4986042;28;20034;-59
2022/01/25 09:32:22;;;;;;;58.90;19.08;;;;;;;-0.72;100.00;100990.88;4987217;28;20077;-59
2022/01/25 09:34:47;;;;;;;55.70;21.05;;;;;;;-0.68;100.00;100993.09;4997813;28;20026;-59
2022/01/25 09:37:13;;;;;;;44.80;17.15;;;;;;;-0.66;100.00;100993.81;4992950;28;20092;-59
2022/01/25 09:39:38;;;;;;;43.72;16.55;;;;;;;-0.47;100.00;101002.84;4985477;28;20597;-59
2022/01/25 09:42:08;;;;;;;44.63;13.23;;;;;;;-0.40;100.00;100989.97;4988495;28;20504;-59
2022/01/25 09:44:37;;;;;;;40.90;13.20;;;;;;;-0.36;100.00;100994.84;4988976;28;20539;-60
2022/01/25 09:47:03;;;;;;;37.53;13.02;;;;;;;-0.36;100.00;100994.84;4987250;28;20527;-59
2022/01/25 09:49:28;;;;;;;35.90;13.00;;;;;;;-0.26;100.00;101001.03;4991931;28;20648;-59
2022/01/25 09:51:55;;;;;;;40.88;12.57;;;;;;;-0.25;100.00;100999.22;4989781;28;20273;-59
2022/01/25 09:54:20;;;;;;;31.85;11.95;;;;;;;-0.17;100.00;100998.59;4989242;28;20294;-60
2022/01/25 09:56:46;;;;;;;34.25;13.50;;;;;;;-0.09;100.00;101011.97;4982550;28;20485;-59
2022/01/25 09:59:11;;;;;;;33.35;12.23;;;;;;;-0.07;100.00;101010.88;4991694;28;20038;-60
2022/01/25 10:01:37;;;;;;;30.33;12.07;;;;;;;-0.09;100.00;101004.06;4998214;28;20069;-59
2022/01/25 10:04:05;;;;;;;26.73;10.32;;;;;;;0.03;100.00;101015.38;4980532;28;20030;-59
2022/01/25 10:06:32;;;;;;;34.22;11.52;;;;;;;-0.14;100.00;101016.78;4989827;28;20077;-59
2022/01/25 10:08:57;;;;;;;33.85;11.63;;;;;;;0.08;100.00;101011.38;4985812;28;20400;-59
2022/01/25 10:11:25;;;;;;;33.40;11.50;;;;;;;0.17;100.00;101018.47;4981458;28;20049;-59
2022/01/25 10:13:54;;;;;;;34.88;12.60;;;;;;;0.15;100.00;101011.66;4985061;28;20090;-59
2022/01/25 10:16:29;;;;;;;33.55;11.98;;;;;;;0.21;100.00;101019.88;4992517;28;20046;-59
2022/01/25 10:18:57;;;;;;;33.65;12.35;;;;;;;0.37;100.00;101018.56;4986908;28;20608;-59
2022/01/25 10:21:24;;;;;;;32.35;10.88;;;;;;;0.20;99.00;101023.50;4984048;28;20046;-59
2022/01/25 10:23:59;;;;;;;31.45;11.80;;;;;;;0.43;99.31;101015.41;4983287;28;20077;-59
2022/01/25 10:26:25;;;;;;;36.65;12.30;;;;;;;-0.16;99.31;101016.91;4984596;28;20049;-59
2022/01/25 10:28:51;;;;;;;38.30;12.90;;;;;;;-0.22;100.00;101018.25;4985882;28;20486;-61
2022/01/25 10:31:16;;;;;;;38.53;14.18;;;;;;;-0.07;100.00;101015.31;4993346;28;20506;-58
2022/01/25 10:33:51;;;;;;;31.13;11.85;;;;;;;-0.14;100.00;101012.34;4991517;28;20049;-61
2022/01/25 10:36:19;;;;;;;33.65;11.82;;;;;;;0.11;100.00;101013.72;4983340;28;20049;-59
2022/01/25 10:38:46;;;;;;;30.23;12.30;;;;;;;0.22;100.00;101018.06;4985640;28;20102;-61
2022/01/25 10:41:14;;;;;;;30.50;10.85;;;;;;;-0.10;99.36;101015.53;4984363;28;20052;-60
2022/01/25 10:43:40;;;;;;;36.33;11.82;;;;;;;-0.07;99.79;101015.31;4987782;28;20165;-61
2022/01/25 10:46:14;;;;;;;31.05;12.65;;;;;;;0.16;99.76;101014.16;4988274;28;20057;-60
2022/01/25 10:48:46;;;;;;;35.13;12.32;;;;;;;-0.03;99.61;101011.44;4989564;28;20357;-61
2022/01/25 10:51:15;;;;;;;45.30;12.55;;;;;;;-0.22;100.00;101007.72;4998498;28;20440;-60
2022/01/25 10:53:40;;;;;;;34.40;12.25;;;;;;;0.01;100.00;101010.22;4988240;28;20543;-61
2022/01/25 10:56:06;;;;;;;42.00;12.88;;;;;;;0.01;100.00;101012.84;4968221;28;20053;-60
2022/01/25 10:58:35;;;;;;;65.78;26.17;;;;;;;0.28;100.00;101008.81;4990591;28;20037;-60
2022/01/25 11:01:01;;;;;;;36.45;11.73;;;;;;;0.10;100.00;101016.50;5002695;28;20038;-60
2022/01/25 11:03:35;;;;;;;35.03;14.45;;;;;;;0.18;100.00;101014.88;4986388;28;20033;-61
2022/01/25 11:06:19;;;;;;;33.70;12.35;;;;;;;0.10;100.00;101016.50;4992358;28;20046;-58
2022/01/25 11:08:48;;;;;;;36.75;13.30;;;;;;;0.15;100.00;101011.66;4985566;28;20030;-61
2022/01/25 11:11:33;;;;;;;39.38;15.73;;;;;;;0.28;100.00;101008.81;4985856;28;20154;-61
2022/01/25 11:14:50;;;;;;;39.20;16.77;;;;;;;0.37;100.00;101008.84;4986766;28;20042;-60
2022/01/25 11:16:44;;;;;;;52.03;22.10;;;;;;;0.43;100.00;101013.59;4997017;28;20484;-60
2022/01/25 11:19:10;;;;;;;36.08;14.10;;;;;;;0.38;99.37;101007.06;4992259;28;20262;-59
2022/01/25 11:21:35;;;;;;;42.17;16.67;;;;;;;0.50;99.67;101006.00;4983349;28;20053;-59
2022/01/25 11:24:00;;;;;;;32.72;13.48;;;;;;;0.42;100.00;100996.13;4968431;28;20034;-60
2022/01/25 11:26:26;;;;;;;43.28;17.85;;;;;;;0.52;99.74;101004.03;4981099;28;20042;-59
2022/01/25 11:28:51;;;;;;;45.90;20.38;;;;;;;0.66;99.13;100997.56;4987140;28;20080;-59
2022/01/25 11:31:21;;;;;;;40.63;14.27;;;;;;;0.25;98.14;100994.09;4985527;28;20047;-59
2022/01/25 11:33:47;;;;;;;44.70;14.93;;;;;;;0.47;99.95;100992.22;4979418;28;20051;-61
2022/01/25 11:36:13;;;;;;;46.92;16.13;;;;;;;0.54;99.10;100996.81;4982583;28;20645;-60
2022/01/25 11:38:43;;;;;;;54.42;21.67;;;;;;;0.69;98.88;100996.47;4969939;28;20026;-58
2022/01/25 11:41:13;;;;;;;43.60;15.38;;;;;;;0.60;98.11;100995.44;4986503;28;20046;-59
2022/01/25 11:43:38;;;;;;;52.03;13.70;;;;;;;0.51;98.37;100991.81;4985626;28;20034;-59
2022/01/25 11:46:05;;;;;;;40.78;14.50;;;;;;;0.45;98.74;100987.09;4991180;28;20233;-59
2022/01/25 11:48:39;;;;;;;41.47;15.43;;;;;;;0.53;99.39;100995.16;4984495;28;20026;-59
2022/01/25 11:51:06;;;;;;;49.85;17.23;;;;;;;0.50;99.32;100990.16;4993805;28;20042;-59
2022/01/25 11:53:31;;;;;;;37.42;14.45;;;;;;;0.31;99.59;100982.19;4982055;28;20408;-59
2022/01/25 11:55:57;;;;;;;39.92;16.83;;;;;;;0.50;99.58;100984.03;4987933;28;20050;-60
2022/01/25 11:58:29;;;;;;;42.47;15.80;;;;;;;0.69;98.67;100980.63;4988661;28;20494;-59
2022/01/25 12:00:59;;;;;;;43.47;16.35;;;;;;;0.73;98.85;100984.69;4990339;28;20078;-59
2022/01/25 12:03:42;;;;;;;40.10;14.68;;;;;;;0.75;98.71;100986.22;4971628;28;20030;-60
2022/01/25 12:06:30;;;;;;;45.08;16.52;;;;;;;0.80;98.03;100983.13;4986607;28;20101;-60
2022/01/25 12:11:45;;;;;;;36.40;14.10;;;;;;;0.79;98.17;100970.91;4984595;28;20394;-61
2022/01/25 12:14:14;;;;;;;36.38;13.95;;;;;;;0.76;97.55;100969.38;4986840;28;20030;-61
2022/01/25 12:16:44;;;;;;;41.45;15.43;;;;;;;0.78;97.82;100971.91;4980981;28;20042;-60
2022/01/25 12:19:21;;;;;;;33.88;13.45;;;;;;;0.78;97.81;100969.25;4985193;28;20038;-60
2022/01/25 12:24:50;;;;;;;35.58;13.18;;;;;;;0.81;97.11;100969.81;4988983;28;20540;-60
2022/01/25 12:27:27;;;;;;;33.72;12.98;;;;;;;0.81;97.84;100963.72;5005902;28;20133;-61
2022/01/25 12:30:24;;;;;;;34.53;13.88;;;;;;;0.80;97.06;100962.00;4987255;28;20042;-59
2022/01/25 12:33:02;;;;;;;35.85;13.88;;;;;;;0.75;97.08;100964.22;4991307;28;20054;-60
2022/01/25 12:35:38;;;;;;;36.50;13.52;;;;;;;0.78;96.75;100966.63;4985767;28;20068;-60
2022/01/25 12:38:33;;;;;;;40.88;13.75;;;;;;;0.69;96.98;100957.69;4983927;28;20050;-60
2022/01/25 12:41:13;;;;;;;49.47;18.63;;;;;;;0.83;97.24;100964.41;4971915;28;20108;-60
2022/01/25 12:43:44;;;;;;;41.85;16.20;;;;;;;0.90;97.27;100951.47;4981107;28;20495;-59
2022/01/25 12:46:13;;;;;;;39.10;14.15;;;;;;;0.91;96.65;100948.72;4988150;28;20421;-59
2022/01/25 12:48:42;;;;;;;47.70;16.55;;;;;;;0.90;96.46;100949.69;4987866;28;20037;-59